Time;durP1;ratioP1;P1;durP2;ratioP2;P2;SDS_P1;SDS_P2;PMS_P1;PMS_P2;Temp;Humidity;BMP_temperature;BMP_pressure;BME280_temperature;BME280_humidity;BME280_pressure;Samples;Min_cycle;Max_cycle;Signal;HPM_P1;HPM_P2
2021/10/03 00:00:56;;;;;;;13.18;6.95;;;15.90;99.90;;;;;;5088522;28;20032;-77
2021/10/03 00:03:24;;;;;;;13.93;7.00;;;15.70;99.90;;;;;;5081819;28;20063;-77
2021/10/03 00:05:52;;;;;;;12.05;7.18;;;15.70;99.90;;;;;;5078229;28;20074;-77
2021/10/03 00:08:19;;;;;;;12.38;7.50;;;15.70;99.90;;;;;;5084366;28;20556;-76
2021/10/03 00:10:44;;;;;;;14.63;7.57;;;15.70;99.90;;;;;;5094194;28;20129;-76
2021/10/03 00:13:10;;;;;;;14.50;8.27;;;15.70;99.90;;;;;;5074324;28;20044;-77
2021/10/03 00:15:37;;;;;;;12.85;8.15;;;15.70;99.90;;;;;;5089247;28;20032;-77
2021/10/03 00:18:06;;;;;;;13.35;8.00;;;15.70;99.90;;;;;;5086461;28;20082;-77
2021/10/03 00:20:32;;;;;;;12.90;8.23;;;15.70;99.90;;;;;;5077256;28;20106;-77
2021/10/03 00:22:58;;;;;;;14.70;8.50;;;15.70;99.90;;;;;;5078216;28;20028;-77
2021/10/03 00:25:26;;;;;;;12.52;8.82;;;15.80;99.90;;;;;;5072261;28;20039;-77
2021/10/03 00:27:53;;;;;;;17.05;8.85;;;15.80;99.90;;;;;;5090917;28;20020;-78
2021/10/03 00:30:19;;;;;;;12.25;8.02;;;15.70;99.90;;;;;;5074906;28;20037;-77
2021/10/03 00:32:45;;;;;;;15.93;9.10;;;15.70;99.90;;;;;;5087605;28;20363;-77
2021/10/03 00:35:12;;;;;;;15.82;8.93;;;15.70;99.90;;;;;;5073286;28;20044;-77
2021/10/03 00:37:38;;;;;;;14.02;8.07;;;15.80;99.90;;;;;;5067102;28;20087;-77
2021/10/03 00:40:06;;;;;;;16.08;8.18;;;15.80;99.90;;;;;;5084502;28;20068;-77
2021/10/03 00:42:32;;;;;;;13.27;8.30;;;15.80;99.90;;;;;;5069808;28;20467;-78
2021/10/03 00:44:58;;;;;;;13.75;8.63;;;15.80;99.90;;;;;;5081191;28;20379;-77
2021/10/03 00:47:24;;;;;;;15.98;8.27;;;15.80;99.90;;;;;;5072678;28;20040;-77
2021/10/03 00:49:50;;;;;;;11.90;7.57;;;15.80;99.90;;;;;;5091098;28;20025;-77
2021/10/03 00:52:15;;;;;;;13.95;8.63;;;15.90;99.90;;;;;;5076691;28;20027;-77
2021/10/03 00:54:41;;;;;;;15.32;8.45;;;15.90;99.90;;;;;;5089836;28;20028;-77
2021/10/03 00:57:07;;;;;;;15.88;8.05;;;15.80;99.90;;;;;;5091040;28;20041;-77
2021/10/03 00:59:34;;;;;;;13.38;8.05;;;15.80;99.90;;;;;;5075650;28;20383;-77
2021/10/03 01:02:01;;;;;;;13.48;8.50;;;15.80;99.90;;;;;;5083527;28;20020;-77
2021/10/03 01:04:27;;;;;;;13.25;7.57;;;15.80;99.90;;;;;;5089551;28;20028;-77
2021/10/03 01:06:52;;;;;;;12.52;7.57;;;15.70;99.90;;;;;;5073970;28;20177;-77
2021/10/03 01:09:19;;;;;;;11.77;7.03;;;15.70;99.90;;;;;;5083849;28;20098;-76
2021/10/03 01:11:45;;;;;;;14.02;7.60;;;15.60;99.90;;;;;;5088214;28;20019;-77
2021/10/03 01:14:11;;;;;;;11.93;7.05;;;15.50;99.90;;;;;;5072340;28;20021;-76
2021/10/03 01:16:38;;;;;;;15.90;8.50;;;15.50;99.90;;;;;;5072496;28;20499;-77
2021/10/03 01:19:04;;;;;;;13.73;8.35;;;15.50;99.90;;;;;;5072535;28;20028;-77
2021/10/03 01:21:31;;;;;;;16.27;9.40;;;15.60;99.90;;;;;;5088757;28;20040;-77
2021/10/03 01:23:57;;;;;;;14.18;8.15;;;15.50;99.90;;;;;;5090564;28;20599;-77
2021/10/03 01:26:23;;;;;;;10.18;7.10;;;15.50;99.90;;;;;;5078199;28;20059;-77
2021/10/03 01:28:53;;;;;;;14.02;7.93;;;15.60;99.90;;;;;;5074471;28;20036;-77
2021/10/03 01:31:23;;;;;;;14.05;8.45;;;15.60;99.90;;;;;;5088454;28;20050;-77
2021/10/03 01:33:49;;;;;;;11.93;8.55;;;15.60;99.90;;;;;;5080348;28;20028;-77
2021/10/03 01:36:15;;;;;;;12.07;6.90;;;15.60;99.90;;;;;;5072962;28;20033;-76
2021/10/03 01:38:40;;;;;;;11.38;7.07;;;15.50;99.90;;;;;;5075147;28;20067;-77
2021/10/03 01:41:06;;;;;;;11.52;7.78;;;15.50;99.90;;;;;;5087457;28;20494;-76
2021/10/03 01:43:32;;;;;;;11.55;6.88;;;15.40;99.90;;;;;;5070308;28;20036;-77
2021/10/03 01:45:59;;;;;;;15.27;7.72;;;15.40;99.90;;;;;;5081417;28;20079;-77
2021/10/03 01:48:25;;;;;;;14.52;8.40;;;15.40;99.90;;;;;;5076061;28;20024;-77
2021/10/03 01:50:56;;;;;;;11.40;7.18;;;15.30;99.90;;;;;;5089632;28;20032;-77
2021/10/03 01:53:36;;;;;;;11.15;7.10;;;15.30;99.90;;;;;;5088449;28;20088;-77
2021/10/03 01:56:05;;;;;;;14.27;7.90;;;15.30;99.90;;;;;;5083217;28;20036;-77
2021/10/03 01:58:35;;;;;;;14.32;7.55;;;15.30;99.90;;;;;;5071400;28;20035;-77
2021/10/03 02:01:06;;;;;;;12.20;6.35;;;15.20;99.90;;;;;;5082180;28;20044;-77
2021/10/03 02:03:31;;;;;;;12.23;7.18;;;15.20;99.90;;;;;;5075031;28;20024;-77
2021/10/03 02:05:57;;;;;;;10.48;6.43;;;15.30;99.90;;;;;;5080272;28;20482;-77
2021/10/03 02:08:23;;;;;;;11.80;6.40;;;15.30;99.90;;;;;;5071866;28;20028;-77
2021/10/03 02:10:51;;;;;;;12.27;6.97;;;15.00;99.90;;;;;;5072390;28;20032;-77
2021/10/03 02:13:19;;;;;;;12.32;7.03;;;15.10;99.90;;;;;;5090792;28;20378;-77
2021/10/03 02:15:48;;;;;;;14.60;8.55;;;15.10;99.90;;;;;;5091584;28;20027;-77
2021/10/03 02:18:16;;;;;;;15.13;9.10;;;15.20;99.90;;;;;;5072534;28;20161;-77
2021/10/03 02:20:43;;;;;;;15.32;8.13;;;15.30;99.90;;;;;;5088628;28;20043;-77
2021/10/03 02:23:11;;;;;;;12.27;8.18;;;15.30;99.90;;;;;;5086808;28;20043;-77
2021/10/03 02:25:43;;;;;;;11.63;6.95;;;15.40;99.90;;;;;;5071569;28;20090;-77
2021/10/03 02:28:11;;;;;;;14.07;7.57;;;15.40;99.90;;;;;;5075732;28;20394;-78
2021/10/03 02:30:38;;;;;;;11.00;6.85;;;15.20;99.90;;;;;;5075121;28;20060;-77
2021/10/03 02:33:04;;;;;;;12.00;7.38;;;15.20;99.90;;;;;;5089730;28;20024;-77
2021/10/03 02:35:30;;;;;;;11.63;7.55;;;15.10;99.90;;;;;;5086359;28;20624;-77
2021/10/03 02:37:55;;;;;;;11.57;6.45;;;15.10;99.90;;;;;;5084467;28;20027;-76
2021/10/03 02:40:21;;;;;;;14.52;8.57;;;15.10;99.90;;;;;;5070588;28;20091;-77
2021/10/03 02:42:47;;;;;;;15.68;9.00;;;15.00;99.90;;;;;;5080311;28;20418;-76
2021/10/03 02:45:13;;;;;;;12.30;6.75;;;15.10;99.90;;;;;;5069291;28;20070;-77
2021/10/03 02:47:39;;;;;;;11.73;7.47;;;15.00;99.90;;;;;;5078886;28;20035;-76
2021/10/03 02:50:06;;;;;;;12.20;7.35;;;15.00;99.90;;;;;;5073489;28;20064;-77
2021/10/03 02:52:32;;;;;;;13.85;7.22;;;15.00;99.90;;;;;;5070834;28;20086;-77
2021/10/03 02:54:58;;;;;;;17.00;7.60;;;15.00;99.90;;;;;;5069232;28;20585;-77
2021/10/03 02:57:23;;;;;;;9.98;6.68;;;15.00;99.90;;;;;;5073490;28;20081;-77
2021/10/03 02:59:49;;;;;;;11.27;6.97;;;15.00;99.90;;;;;;5078638;28;20031;-77
2021/10/03 03:02:15;;;;;;;10.10;6.75;;;15.00;99.90;;;;;;5062611;28;20103;-75
2021/10/03 03:04:40;;;;;;;13.30;7.47;;;15.10;99.90;;;;;;5054203;28;20036;-76
2021/10/03 03:07:06;;;;;;;13.90;7.90;;;15.00;99.90;;;;;;5065752;28;20055;-76
2021/10/03 03:09:32;;;;;;;13.23;7.15;;;14.90;99.90;;;;;;5066824;28;20040;-76
2021/10/03 03:11:58;;;;;;;10.88;7.25;;;14.80;99.90;;;;;;5067220;28;20036;-76
2021/10/03 03:14:23;;;;;;;13.60;7.97;;;14.80;99.90;;;;;;5067111;28;20025;-75
2021/10/03 03:16:52;;;;;;;11.38;7.43;;;14.70;99.90;;;;;;5065014;28;20032;-76
2021/10/03 03:19:19;;;;;;;13.85;8.15;;;14.80;99.90;;;;;;5067258;28;20478;-76
2021/10/03 03:21:45;;;;;;;11.80;7.28;;;14.80;99.90;;;;;;5066987;28;20119;-75
2021/10/03 03:24:12;;;;;;;13.35;7.57;;;15.00;99.90;;;;;;5069336;28;20039;-76
2021/10/03 03:26:38;;;;;;;12.48;8.15;;;15.00;99.90;;;;;;5068786;28;20474;-76
2021/10/03 03:29:04;;;;;;;12.77;8.00;;;15.00;99.90;;;;;;5069939;28;20025;-76
2021/10/03 03:31:30;;;;;;;15.25;7.90;;;15.00;99.90;;;;;;5069589;28;20036;-76
2021/10/03 03:33:57;;;;;;;13.13;7.97;;;15.00;99.90;;;;;;5069650;28;20378;-76
2021/10/03 03:36:23;;;;;;;16.45;8.35;;;14.90;99.90;;;;;;5069269;28;20040;-76
2021/10/03 03:38:49;;;;;;;12.00;7.68;;;14.90;99.90;;;;;;5064969;28;20025;-75
2021/10/03 03:41:15;;;;;;;12.35;8.27;;;14.80;99.90;;;;;;5052703;28;20032;-75
2021/10/03 03:43:42;;;;;;;11.63;7.85;;;15.00;99.90;;;;;;5067778;28;20036;-76
2021/10/03 03:46:09;;;;;;;10.75;7.15;;;15.00;99.90;;;;;;5067818;28;20097;-76
2021/10/03 03:48:35;;;;;;;11.20;7.78;;;14.90;99.90;;;;;;5067839;28;20051;-75
2021/10/03 03:51:03;;;;;;;13.48;7.90;;;14.80;99.90;;;;;;5067294;28;20028;-76
2021/10/03 03:53:30;;;;;;;12.52;8.02;;;14.80;99.90;;;;;;5067236;28;20073;-76
2021/10/03 03:55:56;;;;;;;12.25;7.75;;;14.80;99.90;;;;;;5067735;28;20029;-76
2021/10/03 03:58:22;;;;;;;11.88;7.82;;;14.70;99.90;;;;;;5066459;28;20039;-76
2021/10/03 04:00:47;;;;;;;12.80;8.02;;;14.60;99.90;;;;;;5065954;28;20067;-75
2021/10/03 04:03:13;;;;;;;12.68;7.72;;;14.60;99.90;;;;;;5065315;28;20029;-75
2021/10/03 04:05:39;;;;;;;13.88;9.18;;;14.70;99.90;;;;;;5065823;28;20036;-76
2021/10/03 04:08:09;;;;;;;17.15;9.20;;;14.80;99.90;;;;;;5066182;28;20048;-76
2021/10/03 04:10:34;;;;;;;16.25;9.60;;;14.80;99.90;;;;;;5065107;28;20083;-76
2021/10/03 04:13:00;;;;;;;14.90;7.68;;;14.90;99.90;;;;;;5065600;28;20036;-75
2021/10/03 04:15:26;;;;;;;14.27;8.00;;;14.80;99.90;;;;;;5065425;28;20020;-75
2021/10/03 04:17:52;;;;;;;14.65;8.65;;;14.70;99.90;;;;;;5065595;28;20541;-76
2021/10/03 04:20:18;;;;;;;13.82;7.55;;;14.60;99.90;;;;;;5066227;28;20045;-76
2021/10/03 04:22:43;;;;;;;13.73;7.43;;;14.60;99.90;;;;;;5065342;28;20047;-76
2021/10/03 04:25:09;;;;;;;13.05;7.30;;;14.60;99.90;;;;;;5065621;28;20039;-76
2021/10/03 04:27:35;;;;;;;11.77;7.13;;;14.50;99.90;;;;;;5065594;28;20040;-76
2021/10/03 04:30:02;;;;;;;12.60;8.45;;;14.30;99.90;;;;;;5065588;28;20570;-75
2021/10/03 04:32:27;;;;;;;12.48;7.63;;;14.30;99.90;;;;;;5065636;28;20123;-75
2021/10/03 04:34:53;;;;;;;12.93;9.05;;;14.30;99.90;;;;;;5063458;28;20111;-75
2021/10/03 04:37:19;;;;;;;11.43;7.20;;;14.30;99.90;;;;;;5065381;28;20029;-76
2021/10/03 04:39:44;;;;;;;13.40;9.43;;;14.20;99.90;;;;;;5063405;28;20497;-76
2021/10/03 04:42:10;;;;;;;12.55;8.40;;;14.10;99.90;;;;;;5065042;28;20717;-76
2021/10/03 04:44:36;;;;;;;13.43;8.00;;;14.10;99.90;;;;;;5063789;28;20047;-75
2021/10/03 04:47:02;;;;;;;19.75;9.50;;;14.10;99.90;;;;;;5063692;28;20370;-75
2021/10/03 04:49:27;;;;;;;14.50;7.10;;;14.20;99.90;;;;;;5063715;28;20093;-75
2021/10/03 04:51:53;;;;;;;13.40;8.10;;;14.20;99.90;;;;;;5063573;28;20036;-75
2021/10/03 04:54:19;;;;;;;15.50;8.90;;;14.30;99.90;;;;;;5063930;28;20029;-76
2021/10/03 04:56:45;;;;;;;13.43;8.48;;;14.40;99.90;;;;;;5063306;28;20048;-75
2021/10/03 04:59:10;;;;;;;15.48;9.13;;;14.40;99.90;;;;;;5064263;28;20029;-76
2021/10/03 05:01:36;;;;;;;11.25;7.53;;;14.60;99.90;;;;;;5064387;28;20034;-75
2021/10/03 05:04:02;;;;;;;14.80;7.95;;;14.70;99.90;;;;;;5064940;28;20082;-76
2021/10/03 05:06:27;;;;;;;15.65;9.23;;;14.70;99.90;;;;;;5064183;28;20534;-75
2021/10/03 05:08:53;;;;;;;13.50;8.80;;;14.80;99.90;;;;;;5064533;28;20032;-75
2021/10/03 05:11:20;;;;;;;13.13;8.57;;;14.80;99.90;;;;;;5065148;28;20032;-75
2021/10/03 05:13:46;;;;;;;14.88;9.05;;;14.80;99.90;;;;;;5064975;28;20052;-76
2021/10/03 05:16:12;;;;;;;12.80;8.85;;;14.80;99.90;;;;;;5064558;28;20063;-75
2021/10/03 05:18:37;;;;;;;11.30;8.32;;;14.80;99.90;;;;;;5064755;28;20028;-75
2021/10/03 05:21:04;;;;;;;13.95;8.77;;;14.90;99.90;;;;;;5064222;28;20120;-75
2021/10/03 05:23:31;;;;;;;15.80;8.43;;;14.90;99.90;;;;;;5064427;28;20624;-76
2021/10/03 05:25:56;;;;;;;13.52;7.78;;;14.90;99.90;;;;;;5064768;28;20032;-75
2021/10/03 05:28:22;;;;;;;12.73;8.32;;;14.90;99.90;;;;;;5063429;28;20153;-75
2021/10/03 05:30:48;;;;;;;14.20;7.53;;;14.80;99.90;;;;;;5064758;28;20024;-75
2021/10/03 05:33:13;;;;;;;12.48;7.00;;;14.80;99.90;;;;;;5063258;28;20025;-75
2021/10/03 05:35:39;;;;;;;14.45;8.80;;;14.80;99.90;;;;;;5066597;28;20055;-76
2021/10/03 05:38:05;;;;;;;13.30;8.85;;;14.80;99.90;;;;;;5065739;28;20063;-75
2021/10/03 05:40:31;;;;;;;11.63;7.28;;;14.80;99.90;;;;;;5061970;28;20044;-75
2021/10/03 05:42:57;;;;;;;12.32;7.18;;;14.80;99.90;;;;;;5063679;28;20108;-76
2021/10/03 05:45:23;;;;;;;13.30;8.30;;;14.80;99.90;;;;;;5066560;28;20029;-75
2021/10/03 05:47:49;;;;;;;12.95;7.85;;;14.80;99.90;;;;;;5065406;28;20112;-76
2021/10/03 05:50:15;;;;;;;11.23;7.20;;;14.80;99.90;;;;;;5064841;28;20056;-75
2021/10/03 05:52:40;;;;;;;11.65;7.68;;;14.90;99.90;;;;;;5065262;28;20028;-75
2021/10/03 05:55:07;;;;;;;15.95;8.82;;;14.90;99.90;;;;;;5064892;28;20023;-75
2021/10/03 05:57:32;;;;;;;14.00;8.45;;;14.90;99.90;;;;;;5065344;28;20044;-76
2021/10/03 05:59:58;;;;;;;12.60;8.27;;;14.90;99.90;;;;;;5065548;28;20045;-75
2021/10/03 06:02:24;;;;;;;14.48;8.32;;;15.00;99.90;;;;;;5066518;28;20032;-75
2021/10/03 06:04:49;;;;;;;11.70;8.00;;;15.00;99.90;;;;;;5067342;28;20036;-76
2021/10/03 06:07:15;;;;;;;15.73;9.10;;;15.00;99.90;;;;;;5063236;28;20135;-76
2021/10/03 06:09:42;;;;;;;20.13;11.63;;;14.90;99.90;;;;;;5063704;28;20040;-75
2021/10/03 06:12:08;;;;;;;17.30;10.43;;;14.90;99.90;;;;;;5064315;28;20033;-75
2021/10/03 06:14:34;;;;;;;18.25;9.45;;;14.70;99.90;;;;;;5066520;28;20479;-75
2021/10/03 06:17:00;;;;;;;14.98;9.65;;;14.50;99.90;;;;;;5066347;28;20024;-76
2021/10/03 06:19:26;;;;;;;16.23;10.43;;;14.50;99.90;;;;;;5066361;28;20075;-78
2021/10/03 06:21:52;;;;;;;16.20;9.95;;;14.60;99.90;;;;;;5065785;28;20036;-79
2021/10/03 06:24:18;;;;;;;14.77;10.35;;;14.60;99.90;;;;;;5070261;28;20024;-77
2021/10/03 06:26:47;;;;;;;17.90;11.13;;;14.70;99.90;;;;;;5069962;28;20040;-77
2021/10/03 06:29:17;;;;;;;20.40;10.98;;;14.60;99.90;;;;;;5089439;28;20028;-73
2021/10/03 06:31:43;;;;;;;16.10;10.05;;;14.60;99.90;;;;;;5066614;28;20028;-75
2021/10/03 06:34:09;;;;;;;16.48;11.15;;;14.60;99.90;;;;;;5066412;28;20029;-75
2021/10/03 06:36:35;;;;;;;18.13;11.13;;;14.40;99.90;;;;;;5071164;28;20031;-74
2021/10/03 06:39:02;;;;;;;15.18;10.05;;;14.40;99.90;;;;;;5059924;28;20584;-74
2021/10/03 06:41:28;;;;;;;17.40;11.02;;;14.40;99.90;;;;;;5072374;28;20048;-75
2021/10/03 06:43:55;;;;;;;16.70;10.93;;;14.30;99.90;;;;;;5063981;28;20028;-75
2021/10/03 06:46:21;;;;;;;16.30;11.45;;;14.30;99.90;;;;;;5063198;28;20030;-77
2021/10/03 06:48:46;;;;;;;18.30;12.05;;;14.30;99.90;;;;;;5066997;28;20050;-75
2021/10/03 06:51:14;;;;;;;19.25;12.27;;;14.40;99.90;;;;;;5065215;28;20016;-74
2021/10/03 06:53:40;;;;;;;19.27;12.38;;;14.50;99.90;;;;;;5063440;28;20022;-75
2021/10/03 06:56:05;;;;;;;21.38;13.02;;;14.50;99.90;;;;;;5069396;28;20027;-75
2021/10/03 06:58:31;;;;;;;37.63;23.83;;;14.50;99.90;;;;;;5076056;28;20035;-75
2021/10/03 07:00:57;;;;;;;24.67;15.27;;;14.50;99.90;;;;;;5050010;28;20483;-76
2021/10/03 07:03:23;;;;;;;21.65;13.27;;;14.60;99.90;;;;;;5055931;28;20470;-77
2021/10/03 07:05:48;;;;;;;21.27;13.40;;;14.50;99.90;;;;;;5070509;28;20078;-75
2021/10/03 07:08:14;;;;;;;16.40;11.57;;;14.70;99.90;;;;;;5077518;28;20135;-75
2021/10/03 07:10:40;;;;;;;20.13;13.00;;;14.80;99.90;;;;;;5064463;28;20068;-76
2021/10/03 07:13:06;;;;;;;18.88;12.05;;;14.70;99.90;;;;;;5048849;28;20064;-75
2021/10/03 07:15:33;;;;;;;16.67;11.10;;;14.70;99.90;;;;;;5051839;28;20099;-75
2021/10/03 07:17:59;;;;;;;17.85;11.95;;;14.90;99.90;;;;;;5063203;28;20020;-75
2021/10/03 07:20:25;;;;;;;20.27;12.95;;;15.00;99.90;;;;;;5076801;28;20032;-75
2021/10/03 07:22:51;;;;;;;18.38;12.27;;;15.10;99.90;;;;;;5068649;28;20043;-75
2021/10/03 07:25:17;;;;;;;18.55;11.38;;;15.20;99.90;;;;;;5083364;28;20801;-76
2021/10/03 07:27:42;;;;;;;20.83;13.18;;;15.30;99.90;;;;;;5071620;28;20032;-74
2021/10/03 07:30:08;;;;;;;21.33;13.23;;;15.30;99.90;;;;;;5053643;28;20817;-74
2021/10/03 07:32:34;;;;;;;19.83;13.10;;;15.40;99.90;;;;;;5062966;28;20414;-75
2021/10/03 07:35:00;;;;;;;21.98;13.93;;;15.50;99.90;;;;;;5064748;28;20032;-74
2021/10/03 07:37:26;;;;;;;17.00;12.02;;;15.50;99.90;;;;;;5057060;28;20052;-76
2021/10/03 07:39:52;;;;;;;18.15;11.98;;;15.40;99.90;;;;;;5066218;28;20052;-78
2021/10/03 07:42:38;;;;;;;17.52;12.13;;;15.40;99.90;;;;;;5066453;28;20025;-78
2021/10/03 07:45:06;;;;;;;16.35;10.75;;;15.30;99.90;;;;;;5066763;28;20025;-77
2021/10/03 07:47:31;;;;;;;16.40;11.02;;;15.40;99.90;;;;;;5065870;28;20035;-76
2021/10/03 07:49:57;;;;;;;19.02;12.00;;;15.40;99.90;;;;;;5063666;28;20421;-75
2021/10/03 07:52:22;;;;;;;17.65;11.07;;;15.30;99.90;;;;;;5063439;28;20103;-76
2021/10/03 07:54:48;;;;;;;17.63;12.15;;;15.40;99.90;;;;;;5066963;28;20059;-76
2021/10/03 07:57:14;;;;;;;23.30;13.60;;;15.50;99.90;;;;;;5067116;28;20060;-75
2021/10/03 07:59:40;;;;;;;17.98;12.23;;;15.60;99.90;;;;;;5068457;28;20078;-76
2021/10/03 08:02:06;;;;;;;18.38;11.48;;;15.60;99.90;;;;;;5068976;28;20437;-76
2021/10/03 08:04:32;;;;;;;21.17;13.25;;;15.70;99.90;;;;;;5069622;28;20052;-76
2021/10/03 08:06:57;;;;;;;18.30;13.10;;;15.60;99.90;;;;;;5069936;28;20094;-76
2021/10/03 08:09:23;;;;;;;21.13;11.68;;;15.60;99.90;;;;;;5069737;28;20036;-76
2021/10/03 08:11:49;;;;;;;17.98;11.85;;;15.80;99.90;;;;;;5069211;28;20020;-76
2021/10/03 08:14:15;;;;;;;17.70;11.90;;;15.90;99.90;;;;;;5052931;28;20468;-76
2021/10/03 08:16:40;;;;;;;22.10;12.88;;;15.90;99.90;;;;;;5048751;28;20033;-76
2021/10/03 08:19:06;;;;;;;19.75;12.52;;;15.80;99.90;;;;;;5054268;28;20029;-78
2021/10/03 08:21:32;;;;;;;19.85;12.80;;;15.70;99.90;;;;;;5066394;28;20071;-76
2021/10/03 08:23:58;;;;;;;19.77;14.07;;;15.80;99.90;;;;;;5067560;28;20063;-76
2021/10/03 08:26:24;;;;;;;18.13;12.20;;;15.80;99.90;;;;;;5067308;28;20032;-76
2021/10/03 08:28:51;;;;;;;18.90;12.38;;;15.80;99.90;;;;;;5067249;28;20453;-77
2021/10/03 08:31:16;;;;;;;20.42;12.93;;;15.80;99.90;;;;;;5068007;28;20039;-77
2021/10/03 08:33:42;;;;;;;18.08;12.80;;;15.80;99.90;;;;;;5068787;28;20108;-77
2021/10/03 08:36:08;;;;;;;19.98;13.88;;;15.70;99.90;;;;;;5069094;28;20025;-77
2021/10/03 08:38:34;;;;;;;19.42;12.82;;;15.60;99.90;;;;;;5069240;28;20028;-76
2021/10/03 08:41:03;;;;;;;21.35;14.20;;;15.50;99.90;;;;;;5069566;28;20102;-75
2021/10/03 08:43:29;;;;;;;21.27;14.25;;;15.60;99.90;;;;;;5069331;28;20033;-76
2021/10/03 08:45:57;;;;;;;20.60;13.52;;;15.80;99.90;;;;;;5054294;28;20120;-76
2021/10/03 08:48:24;;;;;;;23.98;15.27;;;15.80;99.90;;;;;;5068540;28;20027;-76
2021/10/03 08:50:50;;;;;;;21.88;14.02;;;15.80;99.90;;;;;;5067474;28;20034;-76
2021/10/03 08:53:16;;;;;;;21.48;14.05;;;16.00;99.90;;;;;;5067844;28;20544;-75
2021/10/03 08:55:43;;;;;;;20.25;13.15;;;16.10;99.90;;;;;;5067794;28;20111;-76
2021/10/03 08:58:09;;;;;;;18.88;13.70;;;16.20;99.90;;;;;;5067658;28;20547;-76
2021/10/03 09:00:47;;;;;;;18.25;12.38;;;16.30;99.90;;;;;;5066846;28;20041;-76
2021/10/03 09:03:14;;;;;;;20.33;13.55;;;16.50;99.90;;;;;;5065861;28;20068;-75
2021/10/03 09:05:49;;;;;;;21.60;13.65;;;16.70;99.90;;;;;;5059731;28;20033;-75
2021/10/03 09:08:22;;;;;;;19.13;13.02;;;16.80;99.90;;;;;;5068797;28;20059;-76
2021/10/03 09:10:48;;;;;;;20.10;13.68;;;16.70;99.90;;;;;;5067430;28;20119;-76
2021/10/03 09:13:15;;;;;;;20.83;13.07;;;16.70;99.90;;;;;;5067975;28;20103;-76
2021/10/03 09:15:42;;;;;;;22.58;14.02;;;16.70;99.90;;;;;;5069001;28;20032;-76
2021/10/03 09:18:08;;;;;;;21.48;14.10;;;16.70;99.90;;;;;;5068925;28;20031;-76
2021/10/03 09:20:34;;;;;;;16.50;13.38;;;16.80;99.90;;;;;;5068015;28;20570;-76
2021/10/03 09:23:21;;;;;;;18.55;12.82;;;16.80;99.90;;;;;;5068527;28;20031;-76
2021/10/03 09:25:51;;;;;;;20.33;13.82;;;16.70;99.90;;;;;;5047030;28;20522;-76
2021/10/03 09:28:20;;;;;;;21.77;13.27;;;16.60;99.90;;;;;;5055554;28;20082;-76
2021/10/03 09:31:12;;;;;;;23.88;13.95;;;16.60;99.90;;;;;;5066781;28;20728;-76
2021/10/03 09:34:00;;;;;;;19.85;13.07;;;16.80;99.90;;;;;;5066150;28;20067;-76
2021/10/03 09:36:30;;;;;;;17.65;13.15;;;16.80;99.90;;;;;;5044411;28;20409;-76
2021/10/03 09:39:08;;;;;;;17.25;11.65;;;16.90;99.90;;;;;;5053301;28;20044;-76
2021/10/03 09:41:38;;;;;;;17.17;12.73;;;16.80;99.90;;;;;;5065138;28;20044;-76
2021/10/03 09:44:11;;;;;;;20.88;13.00;;;17.10;99.90;;;;;;5066798;28;20158;-76
2021/10/03 09:46:46;;;;;;;19.13;12.57;;;17.30;99.90;;;;;;5056927;28;20032;-76
2021/10/03 09:49:19;;;;;;;19.02;13.68;;;17.30;99.90;;;;;;5066894;28;20386;-76
2021/10/03 09:51:47;;;;;;;19.27;12.18;;;17.50;99.90;;;;;;5066389;28;20028;-76
2021/10/03 09:54:15;;;;;;;18.45;12.13;;;17.50;99.90;;;;;;5065756;28;20036;-76
2021/10/03 09:56:41;;;;;;;16.90;12.05;;;17.50;99.90;;;;;;5065910;28;20032;-76
2021/10/03 09:59:07;;;;;;;17.42;11.90;;;17.50;99.90;;;;;;5066446;28;20352;-75
2021/10/03 10:01:38;;;;;;;19.13;12.23;;;17.60;99.90;;;;;;5066084;28;20029;-76
2021/10/03 10:04:09;;;;;;;17.33;12.55;;;17.50;99.90;;;;;;5066419;28;20025;-76
2021/10/03 10:06:35;;;;;;;18.00;13.25;;;17.50;99.90;;;;;;5057094;28;20076;-76
2021/10/03 10:09:15;;;;;;;19.40;12.60;;;17.60;99.90;;;;;;5067676;28;20078;-76
2021/10/03 10:12:01;;;;;;;16.50;12.05;;;18.00;99.90;;;;;;5065931;28;20039;-76
2021/10/03 10:14:33;;;;;;;15.07;10.48;;;18.00;99.90;;;;;;5064509;28;20020;-77
2021/10/03 10:17:01;;;;;;;17.65;10.68;;;17.90;99.90;;;;;;5064655;28;20020;-75
2021/10/03 10:19:42;;;;;;;15.20;11.18;;;17.90;99.90;;;;;;5064459;28;20466;-76
2021/10/03 10:22:19;;;;;;;16.83;9.60;;;18.10;99.90;;;;;;5064977;28;20032;-76
2021/10/03 10:25:02;;;;;;;14.50;10.10;;;18.00;99.90;;;;;;5063365;28;20020;-76
2021/10/03 10:27:28;;;;;;;13.52;9.15;;;18.10;99.90;;;;;;5065236;28;20113;-76
2021/10/03 10:30:01;;;;;;;15.15;9.68;;;18.20;99.90;;;;;;5064299;28;20600;-76
2021/10/03 10:32:29;;;;;;;16.35;10.50;;;18.30;99.90;;;;;;5044393;28;20035;-76
2021/10/03 10:35:10;;;;;;;13.75;8.88;;;18.50;99.90;;;;;;5044831;28;20357;-76
2021/10/03 10:37:51;;;;;;;13.23;8.65;;;18.60;99.90;;;;;;5046506;28;20051;-76
2021/10/03 10:40:26;;;;;;;13.85;9.32;;;18.60;99.90;;;;;;5064394;28;20046;-78
2021/10/03 10:42:54;;;;;;;13.45;9.00;;;18.50;99.90;;;;;;5064983;28;20104;-76
2021/10/03 10:45:43;;;;;;;12.98;8.75;;;18.50;99.90;;;;;;5063591;28;20016;-76
2021/10/03 10:48:09;;;;;;;14.98;9.93;;;18.40;99.90;;;;;;5065549;28;20392;-76
2021/10/03 10:50:36;;;;;;;14.93;9.52;;;18.50;99.90;;;;;;5064664;28;20108;-76
2021/10/03 10:53:25;;;;;;;14.95;9.32;;;18.40;99.90;;;;;;5064246;28;20028;-76
2021/10/03 10:56:16;;;;;;;11.55;8.52;;;18.30;99.90;;;;;;5060468;28;20600;-76
2021/10/03 10:58:51;;;;;;;15.52;9.13;;;18.40;99.90;;;;;;5063926;28;20029;-76
2021/10/03 11:01:41;;;;;;;16.90;9.10;;;18.40;99.90;;;;;;5063792;28;20071;-76
2021/10/03 11:04:28;;;;;;;15.65;9.88;;;18.40;99.90;;;;;;5056467;28;20048;-76
2021/10/03 11:06:56;;;;;;;14.40;8.63;;;18.40;99.90;;;;;;5061944;28;20052;-77
2021/10/03 11:09:22;;;;;;;13.57;9.65;;;18.30;99.90;;;;;;5067061;28;20032;-75
2021/10/03 11:11:54;;;;;;;11.68;8.57;;;18.40;99.90;;;;;;5065338;28;20035;-76
2021/10/03 11:14:22;;;;;;;13.20;8.73;;;18.40;99.90;;;;;;5066110;28;20032;-77
2021/10/03 11:16:50;;;;;;;12.20;8.05;;;18.40;99.90;;;;;;5066442;28;20095;-76
2021/10/03 11:19:30;;;;;;;12.05;8.65;;;18.50;99.90;;;;;;5066062;28;20029;-76
2021/10/03 11:21:59;;;;;;;12.40;8.40;;;18.60;99.90;;;;;;5062608;28;20399;-76
2021/10/03 11:24:30;;;;;;;11.23;8.45;;;18.40;99.90;;;;;;5046060;28;20048;-76
2021/10/03 11:27:13;;;;;;;15.70;9.52;;;18.40;99.90;;;;;;5053149;28;20116;-76
2021/10/03 11:29:52;;;;;;;13.98;9.15;;;18.40;99.90;;;;;;5068467;28;20028;-76
2021/10/03 11:32:21;;;;;;;13.75;9.07;;;18.50;99.90;;;;;;5068330;28;20032;-77
2021/10/03 11:34:52;;;;;;;16.25;9.48;;;18.70;99.90;;;;;;5068669;28;20046;-76
2021/10/03 11:37:42;;;;;;;15.65;9.98;;;18.70;99.90;;;;;;5068287;28;20025;-76
2021/10/03 11:40:13;;;;;;;16.02;10.10;;;18.80;99.90;;;;;;5068335;28;20218;-76
2021/10/03 11:42:41;;;;;;;17.75;9.50;;;18.90;99.90;;;;;;5069290;28;20108;-76
2021/10/03 11:45:11;;;;;;;12.70;8.85;;;18.80;99.90;;;;;;5067813;28;20099;-76
2021/10/03 11:47:54;;;;;;;12.95;8.75;;;18.90;99.90;;;;;;5068667;28;20036;-76
2021/10/03 11:50:24;;;;;;;14.65;9.27;;;19.00;99.90;;;;;;5068203;28;20028;-76
2021/10/03 11:52:56;;;;;;;15.43;8.73;;;19.10;99.90;;;;;;5068334;28;20028;-76
2021/10/03 11:55:36;;;;;;;15.65;9.82;;;18.90;99.90;;;;;;5068466;28;20032;-76
2021/10/03 11:58:09;;;;;;;14.20;8.73;;;19.00;99.90;;;;;;5068095;28;20051;-76
2021/10/03 12:00:54;;;;;;;12.45;7.70;;;19.00;99.90;;;;;;5050631;28;20041;-77
2021/10/03 12:03:21;;;;;;;15.73;9.73;;;18.90;99.90;;;;;;5057777;28;20020;-76
2021/10/03 12:05:47;;;;;;;13.50;9.00;;;19.00;99.90;;;;;;5067496;28;20033;-76
2021/10/03 12:08:16;;;;;;;14.60;9.05;;;19.10;99.90;;;;;;5068613;28;20037;-75
2021/10/03 12:11:02;;;;;;;12.85;8.43;;;19.00;99.90;;;;;;5068653;28;20112;-78
2021/10/03 12:13:34;;;;;;;13.68;8.23;;;19.00;99.90;;;;;;5063199;28;20032;-76
2021/10/03 12:16:13;;;;;;;13.35;9.13;;;19.20;99.90;;;;;;5069135;28;20033;-76
2021/10/03 12:18:47;;;;;;;17.25;9.10;;;18.90;99.90;;;;;;5047440;28;20033;-76
2021/10/03 12:21:16;;;;;;;;;;;19.00;99.90;;;;;;5048208;28;20394;-76
2021/10/03 12:23:42;;;;;;;11.43;7.50;;;19.10;99.90;;;;;;5049770;28;19995;-76
2021/10/03 12:26:41;;;;;;;11.48;8.15;;;19.20;99.90;;;;;;5068784;28;20454;-76
2021/10/03 12:29:07;;;;;;;12.60;8.60;;;19.00;99.90;;;;;;5049163;28;20044;-77
2021/10/03 12:31:42;;;;;;;21.00;10.07;;;18.90;99.90;;;;;;5049149;28;20036;-76
2021/10/03 12:34:13;;;;;;;18.73;8.98;;;18.80;99.90;;;;;;5048903;28;20039;-78
2021/10/03 12:37:00;;;;;;;12.73;8.88;;;18.80;99.90;;;;;;5049012;28;20112;-76
2021/10/03 12:39:32;;;;;;;15.55;9.63;;;18.70;99.90;;;;;;5048657;28;20025;-76